sensor_id;sensor_type;location;lat;lon;timestamp;P1;durP1;ratioP1;P2;durP2;ratioP2
69220;SDS011;56331;51.992;20.910;2022-12-17T00:00:52;12.07;;;8.60;;
69220;SDS011;56331;51.992;20.910;2022-12-17T00:03:37;12.88;;;8.65;;
69220;SDS011;56331;51.992;20.910;2022-12-17T00:06:22;14.93;;;9.40;;
69220;SDS011;56331;51.992;20.910;2022-12-17T00:09:07;13.25;;;8.35;;
69220;SDS011;56331;51.992;20.910;2022-12-17T00:11:52;13.38;;;9.00;;
69220;SDS011;56331;51.992;20.910;2022-12-17T00:14:36;14.65;;;8.90;;
69220;SDS011;56331;51.992;20.910;2022-12-17T00:17:21;15.78;;;9.70;;
69220;SDS011;56331;51.992;20.910;2022-12-17T00:20:07;15.00;;;8.83;;
69220;SDS011;56331;51.992;20.910;2022-12-17T00:22:59;13.58;;;9.20;;
69220;SDS011;56331;51.992;20.910;2022-12-17T00:25:51;12.05;;;8.45;;
69220;SDS011;56331;51.992;20.910;2022-12-17T00:28:38;13.55;;;9.15;;
69220;SDS011;56331;51.992;20.910;2022-12-17T00:31:25;13.75;;;9.25;;
69220;SDS011;56331;51.992;20.910;2022-12-17T00:34:10;12.25;;;8.83;;
69220;SDS011;56331;51.992;20.910;2022-12-17T00:36:56;13.68;;;9.08;;
69220;SDS011;56331;51.992;20.910;2022-12-17T00:39:40;12.00;;;8.60;;
69220;SDS011;56331;51.992;20.910;2022-12-17T00:42:25;11.20;;;8.63;;
69220;SDS011;56331;51.992;20.910;2022-12-17T00:45:11;13.53;;;9.10;;
69220;SDS011;56331;51.992;20.910;2022-12-17T00:47:56;14.00;;;8.70;;
69220;SDS011;56331;51.992;20.910;2022-12-17T00:50:41;13.32;;;8.80;;
69220;SDS011;56331;51.992;20.910;2022-12-17T00:53:26;12.60;;;8.55;;
69220;SDS011;56331;51.992;20.910;2022-12-17T00:56:11;12.20;;;8.73;;
69220;SDS011;56331;51.992;20.910;2022-12-17T00:58:56;12.35;;;9.15;;
69220;SDS011;56331;51.992;20.910;2022-12-17T01:01:27;13.68;;;9.13;;
69220;SDS011;56331;51.992;20.910;2022-12-17T01:04:12;13.48;;;9.30;;
69220;SDS011;56331;51.992;20.910;2022-12-17T01:06:57;12.85;;;8.73;;
69220;SDS011;56331;51.992;20.910;2022-12-17T01:09:42;11.80;;;8.38;;
69220;SDS011;56331;51.992;20.910;2022-12-17T01:12:27;13.20;;;8.50;;
69220;SDS011;56331;51.992;20.910;2022-12-17T01:14:55;13.35;;;8.70;;
69220;SDS011;56331;51.992;20.910;2022-12-17T01:17:40;13.05;;;8.48;;
69220;SDS011;56331;51.992;20.910;2022-12-17T01:20:25;12.45;;;8.78;;
69220;SDS011;56331;51.992;20.910;2022-12-17T01:23:13;14.78;;;9.25;;
69220;SDS011;56331;51.992;20.910;2022-12-17T01:25:57;12.98;;;8.98;;
69220;SDS011;56331;51.992;20.910;2022-12-17T01:28:42;12.40;;;8.95;;
69220;SDS011;56331;51.992;20.910;2022-12-17T01:31:27;12.75;;;8.60;;
69220;SDS011;56331;51.992;20.910;2022-12-17T01:34:12;12.65;;;8.75;;
69220;SDS011;56331;51.992;20.910;2022-12-17T01:36:57;15.10;;;8.70;;
69220;SDS011;56331;51.992;20.910;2022-12-17T01:39:42;13.55;;;8.73;;
69220;SDS011;56331;51.992;20.910;2022-12-17T01:42:34;12.33;;;8.38;;
69220;SDS011;56331;51.992;20.910;2022-12-17T01:45:24;12.23;;;8.60;;
69220;SDS011;56331;51.992;20.910;2022-12-17T01:48:15;11.85;;;8.38;;
69220;SDS011;56331;51.992;20.910;2022-12-17T01:51:03;13.78;;;9.23;;
69220;SDS011;56331;51.992;20.910;2022-12-17T01:53:49;11.80;;;8.33;;
69220;SDS011;56331;51.992;20.910;2022-12-17T01:56:37;13.38;;;8.73;;
69220;SDS011;56331;51.992;20.910;2022-12-17T02:02:31;13.15;;;8.50;;
69220;SDS011;56331;51.992;20.910;2022-12-17T02:05:17;12.65;;;8.40;;
69220;SDS011;56331;51.992;20.910;2022-12-17T02:08:14;12.10;;;8.88;;
69220;SDS011;56331;51.992;20.910;2022-12-17T02:11:00;11.80;;;8.18;;
69220;SDS011;56331;51.992;20.910;2022-12-17T02:16:49;12.65;;;8.33;;
69220;SDS011;56331;51.992;20.910;2022-12-17T02:19:43;13.13;;;8.93;;
69220;SDS011;56331;51.992;20.910;2022-12-17T02:28:47;11.75;;;8.13;;
69220;SDS011;56331;51.992;20.910;2022-12-17T02:31:33;12.58;;;8.38;;
69220;SDS011;56331;51.992;20.910;2022-12-17T02:34:21;12.03;;;8.03;;
69220;SDS011;56331;51.992;20.910;2022-12-17T02:37:05;11.25;;;8.30;;
69220;SDS011;56331;51.992;20.910;2022-12-17T02:39:50;11.65;;;8.05;;
69220;SDS011;56331;51.992;20.910;2022-12-17T02:42:36;12.37;;;8.88;;
69220;SDS011;56331;51.992;20.910;2022-12-17T02:45:21;12.33;;;8.33;;
69220;SDS011;56331;51.992;20.910;2022-12-17T02:48:10;12.53;;;8.38;;
69220;SDS011;56331;51.992;20.910;2022-12-17T02:50:57;13.08;;;9.03;;
69220;SDS011;56331;51.992;20.910;2022-12-17T02:53:43;11.38;;;8.35;;
69220;SDS011;56331;51.992;20.910;2022-12-17T02:56:29;11.85;;;8.28;;
69220;SDS011;56331;51.992;20.910;2022-12-17T02:59:14;11.73;;;8.58;;
69220;SDS011;56331;51.992;20.910;2022-12-17T03:01:59;10.98;;;8.23;;
69220;SDS011;56331;51.992;20.910;2022-12-17T03:04:44;10.65;;;7.85;;
69220;SDS011;56331;51.992;20.910;2022-12-17T03:07:29;11.78;;;8.48;;
69220;SDS011;56331;51.992;20.910;2022-12-17T03:10:14;11.55;;;7.85;;
69220;SDS011;56331;51.992;20.910;2022-12-17T03:12:59;11.85;;;8.25;;
69220;SDS011;56331;51.992;20.910;2022-12-17T03:15:44;11.95;;;8.43;;
69220;SDS011;56331;51.992;20.910;2022-12-17T03:18:28;12.68;;;8.53;;
69220;SDS011;56331;51.992;20.910;2022-12-17T03:21:13;14.20;;;9.15;;
69220;SDS011;56331;51.992;20.910;2022-12-17T03:23:58;11.35;;;8.43;;
69220;SDS011;56331;51.992;20.910;2022-12-17T03:26:43;11.63;;;8.30;;
69220;SDS011;56331;51.992;20.910;2022-12-17T03:29:28;11.88;;;8.48;;
69220;SDS011;56331;51.992;20.910;2022-12-17T03:32:13;10.93;;;8.23;;
69220;SDS011;56331;51.992;20.910;2022-12-17T03:34:58;10.93;;;7.35;;
69220;SDS011;56331;51.992;20.910;2022-12-17T03:37:43;12.20;;;8.90;;
69220;SDS011;56331;51.992;20.910;2022-12-17T03:40:28;11.78;;;8.60;;
69220;SDS011;56331;51.992;20.910;2022-12-17T03:43:14;13.25;;;8.58;;
69220;SDS011;56331;51.992;20.910;2022-12-17T03:45:58;11.80;;;8.10;;
69220;SDS011;56331;51.992;20.910;2022-12-17T03:48:43;13.03;;;8.78;;
69220;SDS011;56331;51.992;20.910;2022-12-17T03:51:30;11.97;;;8.63;;
69220;SDS011;56331;51.992;20.910;2022-12-17T03:54:15;11.73;;;8.80;;
69220;SDS011;56331;51.992;20.910;2022-12-17T03:57:00;12.15;;;8.68;;
69220;SDS011;56331;51.992;20.910;2022-12-17T03:59:45;11.75;;;8.25;;
69220;SDS011;56331;51.992;20.910;2022-12-17T04:02:30;12.25;;;8.10;;
69220;SDS011;56331;51.992;20.910;2022-12-17T04:05:16;12.05;;;8.45;;
69220;SDS011;56331;51.992;20.910;2022-12-17T04:08:01;11.85;;;8.23;;
69220;SDS011;56331;51.992;20.910;2022-12-17T04:10:46;12.98;;;9.05;;
69220;SDS011;56331;51.992;20.910;2022-12-17T04:13:31;13.50;;;8.75;;
69220;SDS011;56331;51.992;20.910;2022-12-17T04:16:16;12.10;;;8.43;;
69220;SDS011;56331;51.992;20.910;2022-12-17T04:18:47;11.03;;;8.03;;
69220;SDS011;56331;51.992;20.910;2022-12-17T04:21:32;11.83;;;8.50;;
69220;SDS011;56331;51.992;20.910;2022-12-17T04:24:17;11.08;;;7.97;;
69220;SDS011;56331;51.992;20.910;2022-12-17T04:27:02;11.12;;;7.87;;
69220;SDS011;56331;51.992;20.910;2022-12-17T04:29:47;10.85;;;7.78;;
69220;SDS011;56331;51.992;20.910;2022-12-17T04:32:33;12.30;;;9.05;;
69220;SDS011;56331;51.992;20.910;2022-12-17T04:35:17;12.33;;;8.33;;
69220;SDS011;56331;51.992;20.910;2022-12-17T04:38:02;11.95;;;8.20;;
69220;SDS011;56331;51.992;20.910;2022-12-17T04:40:47;11.12;;;8.05;;
69220;SDS011;56331;51.992;20.910;2022-12-17T04:43:32;12.13;;;8.25;;
69220;SDS011;56331;51.992;20.910;2022-12-17T04:46:17;11.90;;;8.08;;
69220;SDS011;56331;51.992;20.910;2022-12-17T04:48:45;9.93;;;7.55;;
69220;SDS011;56331;51.992;20.910;2022-12-17T04:51:30;12.80;;;8.48;;
69220;SDS011;56331;51.992;20.910;2022-12-17T04:54:15;11.18;;;7.72;;
69220;SDS011;56331;51.992;20.910;2022-12-17T04:57:00;11.65;;;8.30;;
69220;SDS011;56331;51.992;20.910;2022-12-17T04:59:45;11.68;;;8.20;;
69220;SDS011;56331;51.992;20.910;2022-12-17T05:02:30;13.18;;;8.85;;
69220;SDS011;56331;51.992;20.910;2022-12-17T05:05:15;12.30;;;8.03;;
69220;SDS011;56331;51.992;20.910;2022-12-17T05:08:00;13.10;;;8.83;;
69220;SDS011;56331;51.992;20.910;2022-12-17T05:10:45;10.90;;;8.20;;
69220;SDS011;56331;51.992;20.910;2022-12-17T05:13:33;10.15;;;7.33;;
69220;SDS011;56331;51.992;20.910;2022-12-17T05:16:20;12.95;;;8.18;;
69220;SDS011;56331;51.992;20.910;2022-12-17T05:19:05;11.83;;;8.68;;
69220;SDS011;56331;51.992;20.910;2022-12-17T05:21:50;12.43;;;8.38;;
69220;SDS011;56331;51.992;20.910;2022-12-17T05:24:35;10.60;;;7.55;;
69220;SDS011;56331;51.992;20.910;2022-12-17T05:27:19;11.12;;;7.70;;
69220;SDS011;56331;51.992;20.910;2022-12-17T05:30:04;12.15;;;8.20;;
69220;SDS011;56331;51.992;20.910;2022-12-17T05:32:57;11.50;;;8.08;;
69220;SDS011;56331;51.992;20.910;2022-12-17T05:35:42;11.55;;;7.72;;
69220;SDS011;56331;51.992;20.910;2022-12-17T05:38:27;10.68;;;7.67;;
69220;SDS011;56331;51.992;20.910;2022-12-17T05:41:12;10.98;;;7.80;;
69220;SDS011;56331;51.992;20.910;2022-12-17T05:43:57;10.15;;;7.08;;
69220;SDS011;56331;51.992;20.910;2022-12-17T05:46:42;11.00;;;7.37;;
69220;SDS011;56331;51.992;20.910;2022-12-17T05:49:26;12.20;;;8.35;;
69220;SDS011;56331;51.992;20.910;2022-12-17T05:52:11;13.08;;;7.95;;
69220;SDS011;56331;51.992;20.910;2022-12-17T05:54:56;11.22;;;7.72;;
69220;SDS011;56331;51.992;20.910;2022-12-17T05:57:41;10.75;;;7.58;;
69220;SDS011;56331;51.992;20.910;2022-12-17T06:00:26;10.18;;;7.75;;
69220;SDS011;56331;51.992;20.910;2022-12-17T06:03:11;11.93;;;7.90;;
69220;SDS011;56331;51.992;20.910;2022-12-17T06:05:56;10.63;;;7.55;;
69220;SDS011;56331;51.992;20.910;2022-12-17T06:08:41;11.95;;;7.87;;
69220;SDS011;56331;51.992;20.910;2022-12-17T06:11:26;12.60;;;7.92;;
69220;SDS011;56331;51.992;20.910;2022-12-17T06:14:11;12.00;;;8.23;;
69220;SDS011;56331;51.992;20.910;2022-12-17T06:16:56;12.15;;;8.05;;
69220;SDS011;56331;51.992;20.910;2022-12-17T06:19:41;12.20;;;8.03;;
69220;SDS011;56331;51.992;20.910;2022-12-17T06:22:25;11.60;;;7.58;;
69220;SDS011;56331;51.992;20.910;2022-12-17T06:25:10;11.88;;;8.50;;
69220;SDS011;56331;51.992;20.910;2022-12-17T06:27:59;12.73;;;8.45;;
69220;SDS011;56331;51.992;20.910;2022-12-17T06:30:53;11.28;;;7.87;;
69220;SDS011;56331;51.992;20.910;2022-12-17T06:33:37;11.35;;;8.20;;
69220;SDS011;56331;51.992;20.910;2022-12-17T06:36:11;11.08;;;7.92;;
69220;SDS011;56331;51.992;20.910;2022-12-17T06:38:56;11.35;;;8.05;;
69220;SDS011;56331;51.992;20.910;2022-12-17T06:41:41;13.50;;;8.73;;
69220;SDS011;56331;51.992;20.910;2022-12-17T06:44:26;11.85;;;8.38;;
69220;SDS011;56331;51.992;20.910;2022-12-17T06:47:11;11.68;;;7.78;;
69220;SDS011;56331;51.992;20.910;2022-12-17T06:49:56;12.13;;;8.30;;
69220;SDS011;56331;51.992;20.910;2022-12-17T06:52:41;13.75;;;8.80;;
69220;SDS011;56331;51.992;20.910;2022-12-17T06:55:26;11.15;;;8.08;;
69220;SDS011;56331;51.992;20.910;2022-12-17T06:58:11;11.93;;;7.90;;
69220;SDS011;56331;51.992;20.910;2022-12-17T07:00:56;11.28;;;8.30;;
69220;SDS011;56331;51.992;20.910;2022-12-17T07:03:41;13.43;;;8.15;;
69220;SDS011;56331;51.992;20.910;2022-12-17T07:06:26;13.60;;;8.75;;
69220;SDS011;56331;51.992;20.910;2022-12-17T07:09:11;10.32;;;7.70;;
69220;SDS011;56331;51.992;20.910;2022-12-17T07:11:57;11.35;;;8.20;;
69220;SDS011;56331;51.992;20.910;2022-12-17T07:14:42;11.10;;;7.87;;
69220;SDS011;56331;51.992;20.910;2022-12-17T07:17:27;11.88;;;8.45;;
69220;SDS011;56331;51.992;20.910;2022-12-17T07:20:12;12.33;;;8.40;;
69220;SDS011;56331;51.992;20.910;2022-12-17T07:22:57;11.60;;;8.58;;
69220;SDS011;56331;51.992;20.910;2022-12-17T07:25:42;12.18;;;7.83;;
69220;SDS011;56331;51.992;20.910;2022-12-17T07:28:27;12.05;;;8.15;;
69220;SDS011;56331;51.992;20.910;2022-12-17T07:31:13;12.82;;;8.40;;
69220;SDS011;56331;51.992;20.910;2022-12-17T07:33:58;12.50;;;8.00;;
69220;SDS011;56331;51.992;20.910;2022-12-17T07:36:43;11.60;;;8.35;;
69220;SDS011;56331;51.992;20.910;2022-12-17T07:39:28;13.35;;;8.55;;
69220;SDS011;56331;51.992;20.910;2022-12-17T07:42:13;11.33;;;8.40;;
69220;SDS011;56331;51.992;20.910;2022-12-17T07:44:58;12.10;;;8.10;;
69220;SDS011;56331;51.992;20.910;2022-12-17T07:47:49;11.80;;;8.30;;
69220;SDS011;56331;51.992;20.910;2022-12-17T07:50:36;13.65;;;8.08;;
69220;SDS011;56331;51.992;20.910;2022-12-17T07:53:20;10.90;;;7.60;;
69220;SDS011;56331;51.992;20.910;2022-12-17T07:56:05;10.88;;;7.87;;
69220;SDS011;56331;51.992;20.910;2022-12-17T07:58:50;12.80;;;8.25;;
69220;SDS011;56331;51.992;20.910;2022-12-17T08:01:35;11.48;;;8.60;;
69220;SDS011;56331;51.992;20.910;2022-12-17T08:04:20;12.45;;;8.20;;
69220;SDS011;56331;51.992;20.910;2022-12-17T08:07:05;10.70;;;7.67;;
69220;SDS011;56331;51.992;20.910;2022-12-17T08:09:50;11.05;;;7.87;;
69220;SDS011;56331;51.992;20.910;2022-12-17T08:12:35;11.28;;;7.87;;
69220;SDS011;56331;51.992;20.910;2022-12-17T08:15:20;11.40;;;7.58;;
69220;SDS011;56331;51.992;20.910;2022-12-17T08:18:05;11.48;;;7.47;;
69220;SDS011;56331;51.992;20.910;2022-12-17T08:20:49;10.95;;;8.00;;
69220;SDS011;56331;51.992;20.910;2022-12-17T08:23:34;12.82;;;7.65;;
69220;SDS011;56331;51.992;20.910;2022-12-17T08:26:19;13.15;;;8.38;;
69220;SDS011;56331;51.992;20.910;2022-12-17T08:29:04;11.97;;;8.00;;
69220;SDS011;56331;51.992;20.910;2022-12-17T08:31:48;11.57;;;8.10;;
69220;SDS011;56331;51.992;20.910;2022-12-17T08:34:33;11.63;;;7.78;;
69220;SDS011;56331;51.992;20.910;2022-12-17T08:37:18;11.70;;;7.78;;
69220;SDS011;56331;51.992;20.910;2022-12-17T08:40:03;11.15;;;7.37;;
69220;SDS011;56331;51.992;20.910;2022-12-17T08:42:54;11.03;;;7.67;;
69220;SDS011;56331;51.992;20.910;2022-12-17T08:45:37;11.73;;;7.45;;
69220;SDS011;56331;51.992;20.910;2022-12-17T08:48:22;11.75;;;7.55;;
69220;SDS011;56331;51.992;20.910;2022-12-17T08:51:07;11.33;;;7.65;;
69220;SDS011;56331;51.992;20.910;2022-12-17T08:53:51;12.10;;;7.90;;
69220;SDS011;56331;51.992;20.910;2022-12-17T08:56:36;13.48;;;7.30;;
69220;SDS011;56331;51.992;20.910;2022-12-17T08:59:21;11.73;;;7.37;;
69220;SDS011;56331;51.992;20.910;2022-12-17T09:02:08;12.05;;;7.70;;
69220;SDS011;56331;51.992;20.910;2022-12-17T09:04:53;11.35;;;6.95;;
69220;SDS011;56331;51.992;20.910;2022-12-17T09:07:37;15.75;;;7.58;;
69220;SDS011;56331;51.992;20.910;2022-12-17T09:10:22;10.48;;;7.33;;
69220;SDS011;56331;51.992;20.910;2022-12-17T09:13:07;12.80;;;7.42;;
69220;SDS011;56331;51.992;20.910;2022-12-17T09:15:53;13.55;;;7.47;;
69220;SDS011;56331;51.992;20.910;2022-12-17T09:18:38;10.88;;;7.60;;
69220;SDS011;56331;51.992;20.910;2022-12-17T09:21:23;11.53;;;7.17;;
69220;SDS011;56331;51.992;20.910;2022-12-17T09:24:12;14.40;;;8.15;;
69220;SDS011;56331;51.992;20.910;2022-12-17T09:26:57;13.13;;;7.95;;
69220;SDS011;56331;51.992;20.910;2022-12-17T09:29:42;11.08;;;7.67;;
69220;SDS011;56331;51.992;20.910;2022-12-17T09:32:30;12.58;;;8.30;;
69220;SDS011;56331;51.992;20.910;2022-12-17T09:35:15;11.93;;;7.72;;
69220;SDS011;56331;51.992;20.910;2022-12-17T09:38:00;15.13;;;8.23;;
69220;SDS011;56331;51.992;20.910;2022-12-17T09:40:47;13.95;;;8.65;;
69220;SDS011;56331;51.992;20.910;2022-12-17T09:43:37;14.25;;;8.30;;
69220;SDS011;56331;51.992;20.910;2022-12-17T09:46:30;14.63;;;8.78;;
69220;SDS011;56331;51.992;20.910;2022-12-17T09:49:20;14.58;;;8.38;;
69220;SDS011;56331;51.992;20.910;2022-12-17T09:52:16;13.55;;;8.93;;
69220;SDS011;56331;51.992;20.910;2022-12-17T09:55:00;12.18;;;8.88;;
69220;SDS011;56331;51.992;20.910;2022-12-17T09:57:46;16.00;;;8.98;;
69220;SDS011;56331;51.992;20.910;2022-12-17T10:00:35;13.03;;;8.70;;
69220;SDS011;56331;51.992;20.910;2022-12-17T10:03:20;12.55;;;8.25;;
69220;SDS011;56331;51.992;20.910;2022-12-17T10:06:12;12.35;;;8.28;;
69220;SDS011;56331;51.992;20.910;2022-12-17T10:09:02;10.75;;;7.92;;
69220;SDS011;56331;51.992;20.910;2022-12-17T10:11:49;10.70;;;7.37;;
69220;SDS011;56331;51.992;20.910;2022-12-17T10:14:33;13.88;;;8.25;;
69220;SDS011;56331;51.992;20.910;2022-12-17T10:17:19;13.22;;;8.28;;
69220;SDS011;56331;51.992;20.910;2022-12-17T10:20:15;11.73;;;7.72;;
69220;SDS011;56331;51.992;20.910;2022-12-17T10:23:00;11.65;;;7.85;;
69220;SDS011;56331;51.992;20.910;2022-12-17T10:25:51;11.25;;;7.97;;
69220;SDS011;56331;51.992;20.910;2022-12-17T10:28:39;10.98;;;8.20;;
69220;SDS011;56331;51.992;20.910;2022-12-17T10:31:25;13.65;;;8.13;;
69220;SDS011;56331;51.992;20.910;2022-12-17T10:34:14;13.62;;;8.13;;
69220;SDS011;56331;51.992;20.910;2022-12-17T10:37:03;11.50;;;7.85;;
69220;SDS011;56331;51.992;20.910;2022-12-17T10:39:53;12.40;;;7.92;;
69220;SDS011;56331;51.992;20.910;2022-12-17T10:42:40;11.15;;;7.58;;
69220;SDS011;56331;51.992;20.910;2022-12-17T10:45:31;11.22;;;7.35;;
69220;SDS011;56331;51.992;20.910;2022-12-17T10:48:18;14.40;;;7.17;;
69220;SDS011;56331;51.992;20.910;2022-12-17T10:51:13;11.30;;;7.60;;
69220;SDS011;56331;51.992;20.910;2022-12-17T10:54:19;10.88;;;7.65;;
69220;SDS011;56331;51.992;20.910;2022-12-17T10:57:16;11.22;;;7.60;;
69220;SDS011;56331;51.992;20.910;2022-12-17T11:06:24;11.08;;;7.47;;
69220;SDS011;56331;51.992;20.910;2022-12-17T11:09:13;12.65;;;7.35;;
69220;SDS011;56331;51.992;20.910;2022-12-17T11:12:00;11.68;;;7.40;;
69220;SDS011;56331;51.992;20.910;2022-12-17T11:14:49;13.13;;;7.28;;
69220;SDS011;56331;51.992;20.910;2022-12-17T11:17:31;12.90;;;8.08;;
69220;SDS011;56331;51.992;20.910;2022-12-17T11:20:23;11.48;;;7.85;;
69220;SDS011;56331;51.992;20.910;2022-12-17T11:23:20;10.65;;;7.30;;
69220;SDS011;56331;51.992;20.910;2022-12-17T11:26:06;11.30;;;7.97;;
69220;SDS011;56331;51.992;20.910;2022-12-17T11:28:53;12.03;;;7.33;;
69220;SDS011;56331;51.992;20.910;2022-12-17T11:40:51;10.82;;;7.67;;
69220;SDS011;56331;51.992;20.910;2022-12-17T11:43:41;11.90;;;7.58;;
69220;SDS011;56331;51.992;20.910;2022-12-17T11:47:30;13.30;;;8.03;;
69220;SDS011;56331;51.992;20.910;2022-12-17T11:49:53;12.73;;;8.00;;
69220;SDS011;56331;51.992;20.910;2022-12-17T11:55:51;13.35;;;8.43;;
69220;SDS011;56331;51.992;20.910;2022-12-17T11:58:36;11.78;;;8.03;;
69220;SDS011;56331;51.992;20.910;2022-12-17T12:01:28;12.23;;;7.53;;
69220;SDS011;56331;51.992;20.910;2022-12-17T12:10:47;13.85;;;9.00;;
69220;SDS011;56331;51.992;20.910;2022-12-17T12:13:25;13.15;;;8.50;;
69220;SDS011;56331;51.992;20.910;2022-12-17T12:16:21;14.83;;;9.40;;
69220;SDS011;56331;51.992;20.910;2022-12-17T12:19:14;13.40;;;9.05;;
69220;SDS011;56331;51.992;20.910;2022-12-17T12:25:29;13.90;;;8.80;;
69220;SDS011;56331;51.992;20.910;2022-12-17T12:28:30;13.03;;;8.85;;
69220;SDS011;56331;51.992;20.910;2022-12-17T12:34:20;12.20;;;8.05;;
69220;SDS011;56331;51.992;20.910;2022-12-17T12:37:10;12.82;;;8.28;;
69220;SDS011;56331;51.992;20.910;2022-12-17T12:40:15;11.78;;;7.83;;
69220;SDS011;56331;51.992;20.910;2022-12-17T12:45:58;11.97;;;8.10;;
69220;SDS011;56331;51.992;20.910;2022-12-17T12:51:36;12.68;;;7.67;;
69220;SDS011;56331;51.992;20.910;2022-12-17T12:54:49;10.95;;;7.67;;
69220;SDS011;56331;51.992;20.910;2022-12-17T12:57:33;12.93;;;8.40;;
69220;SDS011;56331;51.992;20.910;2022-12-17T13:03:25;12.25;;;7.95;;
69220;SDS011;56331;51.992;20.910;2022-12-17T13:11:46;13.30;;;8.33;;
69220;SDS011;56331;51.992;20.910;2022-12-17T13:14:30;12.35;;;8.20;;
69220;SDS011;56331;51.992;20.910;2022-12-17T13:17:00;14.80;;;8.50;;
69220;SDS011;56331;51.992;20.910;2022-12-17T13:19:34;13.32;;;8.58;;
69220;SDS011;56331;51.992;20.910;2022-12-17T13:24:43;13.38;;;8.58;;
69220;SDS011;56331;51.992;20.910;2022-12-17T13:27:29;14.35;;;9.05;;
69220;SDS011;56331;51.992;20.910;2022-12-17T13:30:43;13.20;;;8.40;;
69220;SDS011;56331;51.992;20.910;2022-12-17T13:41:31;12.82;;;8.53;;
69220;SDS011;56331;51.992;20.910;2022-12-17T13:44:42;12.70;;;8.20;;
69220;SDS011;56331;51.992;20.910;2022-12-17T13:46:45;12.60;;;8.73;;
69220;SDS011;56331;51.992;20.910;2022-12-17T13:49:16;15.00;;;9.33;;
69220;SDS011;56331;51.992;20.910;2022-12-17T13:51:43;12.65;;;8.23;;
69220;SDS011;56331;51.992;20.910;2022-12-17T13:54:18;14.50;;;9.23;;
69220;SDS011;56331;51.992;20.910;2022-12-17T13:56:42;12.88;;;8.78;;
69220;SDS011;56331;51.992;20.910;2022-12-17T13:59:21;14.65;;;9.70;;
69220;SDS011;56331;51.992;20.910;2022-12-17T14:01:46;14.47;;;10.03;;
69220;SDS011;56331;51.992;20.910;2022-12-17T14:04:20;14.35;;;9.70;;
69220;SDS011;56331;51.992;20.910;2022-12-17T14:06:48;15.10;;;9.75;;
69220;SDS011;56331;51.992;20.910;2022-12-17T14:09:16;15.50;;;10.32;;
69220;SDS011;56331;51.992;20.910;2022-12-17T14:11:44;19.07;;;10.65;;
69220;SDS011;56331;51.992;20.910;2022-12-17T14:14:34;15.78;;;9.45;;
69220;SDS011;56331;51.992;20.910;2022-12-17T14:17:05;16.48;;;9.60;;
69220;SDS011;56331;51.992;20.910;2022-12-17T14:19:34;15.13;;;9.73;;
69220;SDS011;56331;51.992;20.910;2022-12-17T14:22:02;15.95;;;9.83;;
69220;SDS011;56331;51.992;20.910;2022-12-17T14:24:33;18.40;;;10.58;;
69220;SDS011;56331;51.992;20.910;2022-12-17T14:26:59;14.75;;;9.93;;
69220;SDS011;56331;51.992;20.910;2022-12-17T14:29:26;14.00;;;9.88;;
69220;SDS011;56331;51.992;20.910;2022-12-17T14:31:56;17.50;;;11.00;;
69220;SDS011;56331;51.992;20.910;2022-12-17T14:34:25;18.07;;;11.28;;
69220;SDS011;56331;51.992;20.910;2022-12-17T14:36:56;15.65;;;10.48;;
69220;SDS011;56331;51.992;20.910;2022-12-17T14:39:29;16.10;;;10.78;;
69220;SDS011;56331;51.992;20.910;2022-12-17T14:42:09;18.17;;;11.40;;
69220;SDS011;56331;51.992;20.910;2022-12-17T14:44:52;17.50;;;11.80;;
69220;SDS011;56331;51.992;20.910;2022-12-17T14:47:28;18.32;;;11.78;;
69220;SDS011;56331;51.992;20.910;2022-12-17T14:49:57;17.93;;;11.90;;
69220;SDS011;56331;51.992;20.910;2022-12-17T14:52:29;19.52;;;12.30;;
69220;SDS011;56331;51.992;20.910;2022-12-17T14:55:20;18.05;;;11.85;;
69220;SDS011;56331;51.992;20.910;2022-12-17T14:57:50;19.02;;;12.37;;
69220;SDS011;56331;51.992;20.910;2022-12-17T15:00:18;19.98;;;12.75;;
69220;SDS011;56331;51.992;20.910;2022-12-17T15:02:53;16.85;;;10.98;;
69220;SDS011;56331;51.992;20.910;2022-12-17T15:05:18;17.90;;;11.78;;
69220;SDS011;56331;51.992;20.910;2022-12-17T15:07:45;18.52;;;12.05;;
69220;SDS011;56331;51.992;20.910;2022-12-17T15:10:12;16.97;;;11.48;;
69220;SDS011;56331;51.992;20.910;2022-12-17T15:12:41;19.77;;;12.05;;
69220;SDS011;56331;51.992;20.910;2022-12-17T15:15:12;19.37;;;12.03;;
69220;SDS011;56331;51.992;20.910;2022-12-17T15:17:40;22.42;;;12.15;;
69220;SDS011;56331;51.992;20.910;2022-12-17T15:20:07;19.20;;;11.12;;
69220;SDS011;56331;51.992;20.910;2022-12-17T15:22:38;19.45;;;11.10;;
69220;SDS011;56331;51.992;20.910;2022-12-17T15:25:05;18.45;;;11.10;;
69220;SDS011;56331;51.992;20.910;2022-12-17T15:27:34;19.82;;;12.73;;
69220;SDS011;56331;51.992;20.910;2022-12-17T15:30:01;17.17;;;10.95;;
69220;SDS011;56331;51.992;20.910;2022-12-17T15:32:28;18.98;;;11.30;;
69220;SDS011;56331;51.992;20.910;2022-12-17T15:34:55;20.12;;;12.28;;
69220;SDS011;56331;51.992;20.910;2022-12-17T15:37:24;17.75;;;11.40;;
69220;SDS011;56331;51.992;20.910;2022-12-17T15:39:51;17.77;;;11.63;;
69220;SDS011;56331;51.992;20.910;2022-12-17T15:42:17;17.05;;;11.00;;
69220;SDS011;56331;51.992;20.910;2022-12-17T15:45:02;18.35;;;11.65;;
69220;SDS011;56331;51.992;20.910;2022-12-17T15:47:29;19.90;;;12.47;;
69220;SDS011;56331;51.992;20.910;2022-12-17T15:49:55;22.87;;;11.35;;
69220;SDS011;56331;51.992;20.910;2022-12-17T15:52:22;18.25;;;12.13;;
69220;SDS011;56331;51.992;20.910;2022-12-17T15:54:48;16.48;;;10.55;;
69220;SDS011;56331;51.992;20.910;2022-12-17T15:57:15;17.50;;;11.53;;
69220;SDS011;56331;51.992;20.910;2022-12-17T15:59:42;15.30;;;10.40;;
69220;SDS011;56331;51.992;20.910;2022-12-17T16:02:09;17.65;;;11.15;;
69220;SDS011;56331;51.992;20.910;2022-12-17T16:04:36;18.00;;;11.60;;
69220;SDS011;56331;51.992;20.910;2022-12-17T16:07:03;16.27;;;10.88;;
69220;SDS011;56331;51.992;20.910;2022-12-17T16:09:30;17.25;;;10.98;;
69220;SDS011;56331;51.992;20.910;2022-12-17T16:11:57;15.78;;;10.75;;
69220;SDS011;56331;51.992;20.910;2022-12-17T16:14:23;19.15;;;11.83;;
69220;SDS011;56331;51.992;20.910;2022-12-17T16:16:50;17.15;;;11.05;;
69220;SDS011;56331;51.992;20.910;2022-12-17T16:19:17;18.05;;;11.43;;
69220;SDS011;56331;51.992;20.910;2022-12-17T16:24:13;17.98;;;11.15;;
69220;SDS011;56331;51.992;20.910;2022-12-17T16:26:40;18.55;;;11.22;;
69220;SDS011;56331;51.992;20.910;2022-12-17T16:29:06;15.80;;;10.55;;
69220;SDS011;56331;51.992;20.910;2022-12-17T16:31:32;15.83;;;10.18;;
69220;SDS011;56331;51.992;20.910;2022-12-17T16:33:59;15.35;;;10.45;;
69220;SDS011;56331;51.992;20.910;2022-12-17T16:36:29;14.90;;;9.78;;
69220;SDS011;56331;51.992;20.910;2022-12-17T16:38:55;16.35;;;10.13;;
69220;SDS011;56331;51.992;20.910;2022-12-17T16:41:22;16.25;;;10.08;;
69220;SDS011;56331;51.992;20.910;2022-12-17T16:43:48;16.57;;;10.40;;
69220;SDS011;56331;51.992;20.910;2022-12-17T16:46:28;14.87;;;9.83;;
69220;SDS011;56331;51.992;20.910;2022-12-17T16:49:02;15.43;;;9.93;;
69220;SDS011;56331;51.992;20.910;2022-12-17T16:51:34;16.20;;;10.45;;
69220;SDS011;56331;51.992;20.910;2022-12-17T16:54:05;16.55;;;10.75;;
69220;SDS011;56331;51.992;20.910;2022-12-17T16:59:08;14.60;;;10.03;;
69220;SDS011;56331;51.992;20.910;2022-12-17T17:01:36;14.73;;;10.05;;